Terminal Aerodrome Forecast
Issued by NWS Des Moines, IA

Home | Current Version | Previous Version | Text Only | Print | Product List | Glossary On
Versions: 1 2 3 4 5 6 7 8 9 10 11 12 13 14 15 16 17 18 19 20 21 22
000
FTUS43 KDMX 021729
TAFDSM
TAF
KDSM 021729Z 0218/0318 VRB05KT P6SM SCT035 SCT080
     FM022000 VRB06KT P6SM VCSH BKN040
     FM030000 VRB03KT P6SM BKN060
     FM030600 24003KT P6SM SKC
     FM031500 27012KT P6SM SCT060=

USA.gov is the U.S. government's official web portal to all federal, state and local government web resources and services.